createdAt,value
2022-07-30T00:01:20.612Z,8.80
2022-07-30T00:03:49.363Z,7.70
2022-07-30T00:06:20.153Z,8.30
2022-07-30T00:08:48.857Z,8.10
2022-07-30T00:11:17.394Z,8.30
2022-07-30T00:13:45.965Z,8.30
2022-07-30T00:16:14.581Z,8.60
2022-07-30T00:18:43.168Z,7.90
2022-07-30T00:21:20.128Z,8.60
2022-07-30T00:24:02.437Z,7.30
2022-07-30T00:26:31.672Z,8.20
2022-07-30T00:29:00.151Z,8.60
2022-07-30T00:31:30.523Z,7.70
2022-07-30T00:33:59.007Z,8.30
2022-07-30T00:36:27.813Z,8.20
2022-07-30T00:38:57.357Z,8.10
2022-07-30T00:41:26.207Z,8.50
2022-07-30T00:43:54.829Z,9.10
2022-07-30T00:46:23.922Z,7.60
2022-07-30T00:48:52.876Z,8.20
2022-07-30T00:51:21.443Z,8.00
2022-07-30T00:53:49.935Z,7.40
2022-07-30T00:56:18.584Z,7.20
2022-07-30T00:58:47.212Z,7.70
2022-07-30T01:01:16.116Z,8.10
2022-07-30T01:03:45.012Z,8.10
2022-07-30T01:06:14.141Z,7.90
2022-07-30T01:08:43.228Z,7.70
2022-07-30T01:11:12.311Z,7.30
2022-07-30T01:13:45.167Z,7.90
2022-07-30T01:16:14.918Z,7.80
2022-07-30T01:19:03.159Z,7.40
2022-07-30T01:21:37.918Z,7.60
2022-07-30T01:24:20.658Z,8.20
2022-07-30T01:26:50.366Z,8.90
2022-07-30T01:29:20.018Z,8.40
2022-07-30T01:31:50.290Z,8.70
2022-07-30T01:34:20.420Z,9.10
2022-07-30T01:36:50.032Z,9.10
2022-07-30T01:39:20.706Z,8.40
2022-07-30T01:41:52.680Z,8.30
2022-07-30T01:44:23.993Z,8.70
2022-07-30T01:46:54.153Z,8.20
2022-07-30T01:49:25.826Z,8.60
2022-07-30T01:51:57.257Z,7.70
2022-07-30T01:54:28.870Z,8.70
2022-07-30T01:56:59.266Z,9.10
2022-07-30T01:59:33.302Z,8.90
2022-07-30T02:02:02.399Z,8.50
2022-07-30T02:04:31.335Z,8.90
2022-07-30T02:07:04.466Z,8.50
2022-07-30T02:09:43.344Z,8.70
2022-07-30T02:12:29.533Z,9.00
2022-07-30T02:15:07.058Z,8.60
2022-07-30T02:17:45.072Z,8.60
2022-07-30T02:20:16.329Z,8.90
2022-07-30T02:22:48.467Z,9.30
2022-07-30T02:25:20.827Z,9.00
2022-07-30T02:27:55.560Z,8.10
2022-07-30T02:30:27.902Z,9.60
2022-07-30T02:33:01.928Z,9.00
2022-07-30T02:35:33.231Z,9.30
2022-07-30T02:38:02.486Z,9.00
2022-07-30T02:41:07.906Z,9.40
2022-07-30T02:43:53.444Z,8.50
2022-07-30T02:46:24.911Z,8.30
2022-07-30T02:49:23.991Z,8.60
2022-07-30T02:51:54.536Z,8.70
2022-07-30T02:54:25.271Z,8.10
2022-07-30T02:56:56.871Z,7.70
2022-07-30T02:59:26.936Z,7.90
2022-07-30T03:01:57.286Z,7.70
2022-07-30T03:04:27.101Z,7.90
2022-07-30T03:06:57.940Z,7.80
2022-07-30T03:09:27.203Z,7.90
2022-07-30T03:12:17.355Z,7.90
2022-07-30T03:14:46.122Z,7.50
2022-07-30T03:17:16.849Z,8.00
2022-07-30T03:19:48.081Z,7.00
2022-07-30T03:22:18.925Z,8.30
2022-07-30T03:24:49.043Z,8.00
2022-07-30T03:27:18.112Z,8.00
2022-07-30T03:29:49.148Z,7.60
2022-07-30T03:32:18.519Z,7.70
2022-07-30T03:34:48.392Z,7.40
2022-07-30T03:37:17.754Z,8.00
2022-07-30T03:39:47.425Z,7.60
2022-07-30T03:42:16.625Z,7.60
2022-07-30T03:44:45.709Z,7.80
2022-07-30T03:47:15.194Z,8.90
2022-07-30T03:49:48.122Z,8.50
2022-07-30T03:52:17.211Z,8.80
2022-07-30T03:54:48.270Z,7.60
2022-07-30T03:57:45.741Z,8.20
2022-07-30T04:00:16.566Z,8.60
2022-07-30T04:02:49.002Z,9.00
2022-07-30T04:05:17.776Z,8.20
2022-07-30T04:07:47.264Z,9.10
2022-07-30T04:10:17.719Z,8.40
2022-07-30T04:13:01.366Z,8.60
2022-07-30T04:16:04.987Z,9.00
2022-07-30T04:18:29.610Z,8.30
2022-07-30T04:23:28.091Z,8.50
2022-07-30T04:25:57.102Z,8.40
2022-07-30T04:28:27.616Z,8.60
2022-07-30T04:30:56.637Z,8.30
2022-07-30T04:33:25.699Z,8.90
2022-07-30T04:36:11.154Z,9.00
2022-07-30T04:38:41.463Z,8.60
2022-07-30T04:41:09.942Z,8.80
2022-07-30T04:44:07.560Z,8.60
2022-07-30T04:46:38.504Z,8.80
2022-07-30T04:49:07.344Z,8.50
2022-07-30T04:51:38.141Z,9.00
2022-07-30T04:54:15.725Z,8.60
2022-07-30T04:56:53.062Z,8.70
2022-07-30T04:59:24.810Z,7.90
2022-07-30T05:01:56.147Z,8.70
2022-07-30T05:04:26.537Z,8.10
2022-07-30T05:06:57.081Z,7.90
2022-07-30T05:09:27.099Z,7.60
2022-07-30T05:11:58.666Z,7.90
2022-07-30T05:14:28.001Z,8.10
2022-07-30T05:16:56.517Z,7.20
2022-07-30T05:19:25.115Z,7.20
2022-07-30T05:21:53.893Z,6.90
2022-07-30T05:24:22.470Z,7.30
2022-07-30T05:26:56.545Z,6.40
2022-07-30T05:29:26.994Z,6.70
2022-07-30T05:32:10.414Z,6.50
2022-07-30T05:34:39.436Z,6.20
2022-07-30T05:37:10.006Z,5.70
2022-07-30T05:39:59.225Z,5.90
2022-07-30T05:42:44.840Z,5.80
2022-07-30T05:45:13.579Z,5.80
2022-07-30T05:47:42.492Z,6.30
2022-07-30T05:50:12.236Z,5.50
2022-07-30T05:52:41.294Z,5.70
2022-07-30T05:55:28.693Z,6.20
2022-07-30T05:58:12.611Z,5.90
2022-07-30T06:00:41.360Z,5.80
2022-07-30T06:03:10.347Z,5.70
2022-07-30T06:06:11.760Z,5.90
2022-07-30T06:08:40.394Z,5.60
2022-07-30T06:11:09.096Z,5.40
2022-07-30T06:13:38.526Z,5.20
2022-07-30T06:16:07.195Z,5.50
2022-07-30T06:18:37.406Z,6.00
2022-07-30T06:21:14.940Z,5.70
2022-07-30T06:23:58.283Z,5.50
2022-07-30T06:26:38.637Z,5.70
2022-07-30T06:29:08.265Z,5.90
2022-07-30T06:31:39.596Z,5.50
2022-07-30T06:34:08.958Z,5.90
2022-07-30T06:39:14.802Z,5.90
2022-07-30T06:42:21.978Z,6.00
2022-07-30T06:45:16.996Z,6.00
2022-07-30T06:48:06.190Z,5.90
2022-07-30T06:50:36.886Z,6.00
2022-07-30T06:53:06.464Z,5.90
2022-07-30T06:55:58.224Z,6.00
2022-07-30T06:58:31.514Z,6.60
2022-07-30T07:01:22.793Z,6.70
2022-07-30T07:03:52.045Z,6.30
2022-07-30T07:06:20.540Z,7.30
2022-07-30T07:08:49.416Z,5.90
2022-07-30T07:11:21.024Z,7.00
2022-07-30T07:13:53.548Z,6.50
2022-07-30T07:16:31.002Z,7.30
2022-07-30T07:18:59.909Z,6.40
2022-07-30T07:21:28.590Z,7.90
2022-07-30T07:23:59.681Z,7.90
2022-07-30T07:26:54.476Z,8.40
2022-07-30T07:29:23.174Z,8.80
2022-07-30T07:32:05.366Z,8.30
2022-07-30T07:34:39.773Z,8.10
2022-07-30T07:37:09.653Z,9.00
2022-07-30T07:39:42.228Z,8.50
2022-07-30T07:42:11.771Z,9.10
2022-07-30T07:44:40.920Z,8.70
2022-07-30T07:47:10.015Z,7.90
2022-07-30T07:49:43.142Z,7.80
2022-07-30T07:52:12.056Z,8.00
2022-07-30T07:54:40.671Z,8.50
2022-07-30T07:57:10.400Z,8.10
2022-07-30T07:59:43.335Z,8.40
2022-07-30T08:02:16.689Z,8.40
2022-07-30T08:04:51.850Z,7.30
2022-07-30T08:07:45.548Z,7.80
2022-07-30T08:10:33.121Z,8.10
2022-07-30T08:13:49.134Z,7.60
2022-07-30T08:16:30.512Z,8.80
2022-07-30T08:19:17.242Z,7.90
2022-07-30T08:21:52.716Z,7.70
2022-07-30T08:24:21.467Z,8.30
2022-07-30T08:26:50.437Z,7.70
2022-07-30T08:29:19.227Z,8.50
2022-07-30T08:31:48.422Z,8.90
2022-07-30T08:34:18.481Z,8.40
2022-07-30T08:36:46.916Z,8.60
2022-07-30T08:39:16.686Z,8.50
2022-07-30T08:41:45.574Z,8.10
2022-07-30T08:44:17.603Z,8.00
2022-07-30T08:46:47.808Z,7.90
2022-07-30T08:49:31.949Z,7.60
2022-07-30T08:52:01.500Z,8.40
2022-07-30T08:54:53.364Z,8.00
2022-07-30T08:57:22.995Z,8.20
2022-07-30T09:00:00.667Z,8.60
2022-07-30T09:02:32.356Z,8.40
2022-07-30T09:05:07.179Z,8.20
2022-07-30T09:07:37.553Z,8.40
2022-07-30T09:10:08.965Z,8.30
2022-07-30T09:12:40.157Z,7.80
2022-07-30T09:15:11.639Z,8.10
2022-07-30T09:20:19.679Z,9.00
2022-07-30T09:22:51.240Z,7.60
2022-07-30T09:25:44.664Z,8.50
2022-07-30T09:28:34.415Z,8.20
2022-07-30T09:34:28.105Z,8.60
2022-07-30T09:37:19.742Z,9.00
2022-07-30T09:40:18.164Z,9.60
2022-07-30T09:43:27.870Z,10.70
2022-07-30T09:46:02.990Z,11.40
2022-07-30T09:48:31.620Z,11.70
2022-07-30T09:51:00.337Z,11.50
2022-07-30T09:53:31.024Z,12.10
2022-07-30T09:56:00.588Z,11.30
2022-07-30T09:58:45.719Z,10.90
2022-07-30T10:01:15.620Z,11.90
2022-07-30T10:04:26.598Z,11.20
2022-07-30T10:07:02.151Z,11.40
2022-07-30T10:09:44.579Z,10.40
2022-07-30T10:12:15.252Z,12.50
2022-07-30T10:14:47.757Z,11.60
2022-07-30T10:17:19.372Z,11.90
2022-07-30T10:20:09.284Z,11.10
2022-07-30T10:23:08.099Z,12.70
2022-07-30T10:26:09.191Z,13.60
2022-07-30T10:28:56.825Z,13.10
2022-07-30T10:31:47.952Z,12.10
2022-07-30T10:34:17.366Z,13.10
2022-07-30T10:36:49.685Z,11.50
2022-07-30T10:39:24.141Z,13.20
2022-07-30T10:42:15.057Z,12.50
2022-07-30T10:45:01.113Z,12.90
2022-07-30T10:47:34.490Z,13.00
2022-07-30T10:50:11.969Z,13.60
2022-07-30T10:52:52.751Z,12.20
2022-07-30T10:55:37.322Z,13.90
2022-07-30T10:58:09.871Z,12.20
2022-07-30T11:00:59.703Z,14.60
2022-07-30T11:03:40.765Z,11.50
2022-07-30T11:06:28.474Z,11.80
2022-07-30T11:08:58.253Z,11.40
2022-07-30T11:12:01.033Z,11.60
2022-07-30T11:15:06.307Z,10.80
2022-07-30T11:17:59.120Z,10.40
2022-07-30T11:20:29.139Z,10.80
2022-07-30T11:23:13.981Z,12.10
2022-07-30T11:25:51.155Z,10.90
2022-07-30T11:28:44.513Z,10.70
2022-07-30T11:31:55.721Z,9.90
2022-07-30T11:34:29.799Z,10.30
2022-07-30T11:37:18.293Z,9.10
2022-07-30T11:40:13.031Z,8.60
2022-07-30T11:42:44.360Z,9.10
2022-07-30T11:45:34.042Z,9.20
2022-07-30T11:48:08.853Z,9.30
2022-07-30T11:50:38.134Z,10.20
2022-07-30T11:53:08.820Z,9.10
2022-07-30T11:55:39.020Z,10.10
2022-07-30T11:58:09.963Z,10.10
2022-07-30T12:00:41.131Z,10.50
2022-07-30T12:03:13.959Z,10.30
2022-07-30T12:05:45.093Z,9.20
2022-07-30T12:08:35.309Z,9.10
2022-07-30T12:11:04.884Z,8.70
2022-07-30T12:13:45.008Z,8.30
2022-07-30T12:16:18.419Z,9.00
2022-07-30T12:18:47.903Z,9.30
2022-07-30T12:21:17.143Z,9.30
2022-07-30T12:23:55.471Z,8.90
2022-07-30T12:26:30.181Z,8.80
2022-07-30T12:29:05.025Z,8.90
2022-07-30T12:31:34.431Z,8.10
2022-07-30T12:34:26.625Z,9.10
2022-07-30T12:37:14.709Z,7.90
2022-07-30T12:39:43.697Z,9.40
2022-07-30T12:42:20.068Z,9.30
2022-07-30T12:44:49.679Z,8.50
2022-07-30T12:47:23.707Z,9.50
2022-07-30T12:50:03.058Z,8.80
2022-07-30T12:52:34.626Z,9.20
2022-07-30T12:55:12.025Z,10.30
2022-07-30T12:58:05.432Z,9.90
2022-07-30T13:00:51.773Z,9.00
2022-07-30T13:03:23.744Z,9.30
2022-07-30T13:08:46.084Z,9.30
2022-07-30T13:11:15.964Z,10.10
2022-07-30T13:13:49.206Z,10.70
2022-07-30T13:16:23.945Z,10.90
2022-07-30T13:18:52.828Z,10.90
2022-07-30T13:21:21.588Z,11.40
2022-07-30T13:23:51.281Z,11.90
2022-07-30T13:26:20.518Z,11.30
2022-07-30T13:28:49.371Z,11.30
2022-07-30T13:31:18.254Z,12.40
2022-07-30T13:33:46.913Z,11.90
2022-07-30T13:36:15.882Z,11.60
2022-07-30T13:38:44.954Z,11.50
2022-07-30T13:41:13.631Z,10.60
2022-07-30T13:43:42.655Z,11.90
2022-07-30T13:46:11.804Z,12.80
2022-07-30T13:48:41.467Z,12.80
2022-07-30T13:51:11.146Z,11.00
2022-07-30T13:53:41.212Z,12.80
2022-07-30T13:56:12.786Z,12.20
2022-07-30T13:58:44.979Z,12.60
2022-07-30T14:01:17.742Z,11.80
2022-07-30T14:03:49.774Z,12.90
2022-07-30T14:06:19.581Z,12.70
2022-07-30T14:08:48.416Z,12.80
2022-07-30T14:11:17.279Z,11.60
2022-07-30T14:13:45.848Z,12.60
2022-07-30T14:16:42.406Z,11.90
2022-07-30T14:19:04.861Z,11.80
2022-07-30T14:21:33.907Z,11.20
2022-07-30T14:24:05.519Z,11.10
2022-07-30T14:26:40.385Z,12.10
2022-07-30T14:29:09.692Z,11.40
2022-07-30T14:31:39.855Z,12.20
2022-07-30T14:34:08.747Z,12.10
2022-07-30T14:36:37.983Z,12.50
2022-07-30T14:39:07.485Z,12.30
2022-07-30T14:41:38.056Z,12.90
2022-07-30T14:44:11.614Z,12.50
2022-07-30T14:46:52.146Z,12.90
2022-07-30T14:49:22.798Z,14.40
2022-07-30T14:51:51.900Z,12.70
2022-07-30T14:54:20.709Z,13.40
2022-07-30T14:56:51.016Z,13.80
2022-07-30T14:59:22.402Z,13.20
2022-07-30T15:01:52.025Z,13.40
2022-07-30T15:04:20.648Z,13.10
2022-07-30T15:06:49.546Z,13.20
2022-07-30T15:09:19.165Z,12.90
2022-07-30T15:12:08.639Z,13.40
2022-07-30T15:14:38.192Z,13.40
2022-07-30T15:17:08.838Z,12.80
2022-07-30T15:19:37.300Z,12.00
2022-07-30T15:22:19.125Z,11.70
2022-07-30T15:24:48.432Z,12.00
2022-07-30T15:27:17.221Z,11.90
2022-07-30T15:29:45.798Z,12.50
2022-07-30T15:32:15.123Z,12.40
2022-07-30T15:34:43.647Z,12.80
2022-07-30T15:37:12.982Z,13.80
2022-07-30T15:39:42.278Z,12.40
2022-07-30T15:42:10.816Z,12.70
2022-07-30T15:44:48.098Z,12.80
2022-07-30T15:47:17.425Z,13.80
2022-07-30T15:49:46.109Z,13.50
2022-07-30T15:52:15.097Z,13.00
2022-07-30T15:54:44.588Z,12.50
2022-07-30T15:57:14.157Z,12.60
2022-07-30T15:59:44.577Z,13.60
2022-07-30T16:02:13.447Z,12.90
2022-07-30T16:04:42.330Z,12.10
2022-07-30T16:07:17.573Z,13.10
2022-07-30T16:09:46.985Z,12.70
2022-07-30T16:12:15.977Z,13.40
2022-07-30T16:14:46.947Z,11.20
2022-07-30T16:17:16.731Z,12.60
2022-07-30T16:19:46.140Z,11.70
2022-07-30T16:22:22.184Z,12.20
2022-07-30T16:24:53.782Z,11.80
2022-07-30T16:27:22.608Z,11.00
2022-07-30T16:29:54.172Z,12.10
2022-07-30T16:32:23.956Z,12.60
2022-07-30T16:34:53.139Z,12.90
2022-07-30T16:37:21.901Z,14.10
2022-07-30T16:39:50.920Z,13.20
2022-07-30T16:42:20.038Z,14.00
2022-07-30T16:44:49.311Z,14.20
2022-07-30T16:47:18.012Z,13.70
